createdAt,value
2023-02-28T00:00:56.054Z,89.88
2023-02-28T00:01:55.979Z,90.07
2023-02-28T00:02:55.875Z,90.07
2023-02-28T00:03:55.785Z,89.78
2023-02-28T00:04:55.704Z,89.97
2023-02-28T00:05:55.612Z,90.07
2023-02-28T00:06:55.531Z,90.16
2023-02-28T00:07:55.438Z,89.97
2023-02-28T00:08:55.364Z,89.78
2023-02-28T00:09:55.265Z,89.78
2023-02-28T00:10:55.174Z,89.88
2023-02-28T00:11:55.087Z,90.07
2023-02-28T00:12:54.997Z,89.97
2023-02-28T00:13:54.911Z,90.54
2023-02-28T00:14:54.820Z,90.16
2023-02-28T00:15:54.739Z,90.45
2023-02-28T00:16:54.683Z,90.35
2023-02-28T00:17:54.563Z,90.35
2023-02-28T00:18:54.474Z,90.35
2023-02-28T00:19:54.381Z,90.54
2023-02-28T00:20:54.295Z,90.35
2023-02-28T00:21:54.201Z,90.45
2023-02-28T00:22:54.124Z,91.49
2023-02-28T00:23:54.028Z,91.49
2023-02-28T00:24:53.951Z,91.11
2023-02-28T00:25:53.853Z,91.30
2023-02-28T00:26:53.767Z,91.01
2023-02-28T00:27:53.681Z,91.01
2023-02-28T00:28:53.599Z,91.01
2023-02-28T00:29:53.500Z,91.11
2023-02-28T00:30:53.598Z,91.39
2023-02-28T00:31:53.353Z,91.01
2023-02-28T00:32:53.251Z,91.39
2023-02-28T00:33:53.143Z,91.30
2023-02-28T00:34:53.058Z,91.39
2023-02-28T00:35:53.216Z,91.39
2023-02-28T00:36:52.897Z,91.39
2023-02-28T00:37:52.794Z,91.39
2023-02-28T00:38:52.722Z,91.11
2023-02-28T00:39:52.615Z,91.49
2023-02-28T00:40:52.527Z,91.58
2023-02-28T00:41:52.437Z,91.30
2023-02-28T00:42:52.351Z,91.20
2023-02-28T00:43:52.266Z,91.30
2023-02-28T00:44:52.180Z,91.58
2023-02-28T00:45:52.126Z,91.20
2023-02-28T00:46:51.997Z,91.01
2023-02-28T00:47:51.904Z,91.30
2023-02-28T00:48:51.820Z,91.49
2023-02-28T00:49:51.735Z,91.30
2023-02-28T00:50:51.649Z,91.39
2023-02-28T00:51:51.565Z,91.49
2023-02-28T00:52:51.467Z,91.86
2023-02-28T00:53:51.378Z,92.24
2023-02-28T00:54:51.288Z,92.14
2023-02-28T00:55:51.209Z,92.24
2023-02-28T00:56:51.120Z,92.14
2023-02-28T00:57:51.026Z,92.14
2023-02-28T00:58:50.940Z,92.43
2023-02-28T00:59:50.856Z,92.24
2023-02-28T01:00:50.770Z,92.52
2023-02-28T01:01:50.704Z,92.24
2023-02-28T01:02:50.583Z,92.14
2023-02-28T01:03:50.502Z,92.24
2023-02-28T01:04:50.427Z,92.05
2023-02-28T01:05:50.325Z,92.43
2023-02-28T01:06:50.227Z,92.05
2023-02-28T01:07:50.145Z,92.24
2023-02-28T01:08:50.054Z,92.05
2023-02-28T01:09:49.975Z,92.33
2023-02-28T01:10:49.880Z,92.33
2023-02-28T01:11:49.785Z,92.24
2023-02-28T01:12:49.706Z,92.43
2023-02-28T01:13:49.623Z,92.14
2023-02-28T01:14:49.525Z,92.33
2023-02-28T01:15:49.469Z,92.24
2023-02-28T01:16:49.354Z,92.24
2023-02-28T01:17:49.272Z,92.52
2023-02-28T01:18:49.171Z,92.90
2023-02-28T01:19:49.085Z,92.99
2023-02-28T01:20:49.004Z,92.71
2023-02-28T01:21:48.906Z,92.80
2023-02-28T01:22:48.842Z,92.80
2023-02-28T01:23:48.729Z,92.80
2023-02-28T01:24:48.643Z,92.80
2023-02-28T01:25:48.564Z,92.99
2023-02-28T01:26:48.469Z,92.90
2023-02-28T01:27:48.378Z,92.61
2023-02-28T01:28:48.295Z,92.80
2023-02-28T01:29:48.211Z,92.71
2023-02-28T01:30:48.153Z,92.71
2023-02-28T01:31:48.050Z,92.99
2023-02-28T01:32:47.943Z,92.99
2023-02-28T01:33:47.851Z,93.09
2023-02-28T01:34:47.763Z,93.09
2023-02-28T01:35:47.683Z,93.09
2023-02-28T01:36:47.587Z,92.99
2023-02-28T01:37:47.499Z,93.56
2023-02-28T01:38:47.407Z,93.56
2023-02-28T01:39:47.318Z,93.66
2023-02-28T01:40:47.229Z,93.47
2023-02-28T01:41:47.144Z,93.56
2023-02-28T01:42:47.059Z,93.56
2023-02-28T01:43:46.968Z,93.47
2023-02-28T01:44:46.875Z,93.56
2023-02-28T01:45:46.789Z,93.47
2023-02-28T01:46:46.786Z,92.80
2023-02-28T01:47:46.614Z,93.56
2023-02-28T01:48:46.518Z,93.47
2023-02-28T01:49:46.444Z,93.28
2023-02-28T01:50:46.345Z,92.99
2023-02-28T01:51:46.260Z,93.66
2023-02-28T01:52:46.173Z,93.47
2023-02-28T01:53:46.084Z,93.75
2023-02-28T01:54:45.994Z,93.56
2023-02-28T01:55:45.903Z,93.37
2023-02-28T01:56:45.822Z,93.66
2023-02-28T01:57:45.726Z,93.47
2023-02-28T01:58:45.633Z,93.75
2023-02-28T01:59:45.549Z,93.37
2023-02-28T02:00:45.463Z,93.56
2023-02-28T02:01:45.435Z,93.47
2023-02-28T02:02:45.288Z,93.47
2023-02-28T02:03:45.200Z,93.66
2023-02-28T02:04:45.119Z,93.56
2023-02-28T02:05:45.021Z,93.56
2023-02-28T02:06:44.925Z,93.37
2023-02-28T02:07:44.848Z,93.37
2023-02-28T02:08:44.754Z,93.47
2023-02-28T02:09:44.670Z,93.09
2023-02-28T02:10:44.575Z,93.47
2023-02-28T02:11:44.489Z,93.56
2023-02-28T02:12:44.398Z,93.37
2023-02-28T02:13:44.321Z,93.28
2023-02-28T02:14:44.223Z,93.84
2023-02-28T02:15:44.151Z,93.75
2023-02-28T02:16:44.049Z,93.56
2023-02-28T02:17:43.960Z,93.56
2023-02-28T02:18:43.871Z,93.56
2023-02-28T02:19:43.784Z,93.56
2023-02-28T02:20:43.697Z,93.37
2023-02-28T02:21:43.607Z,93.75
2023-02-28T02:22:43.519Z,93.94
2023-02-28T02:23:43.430Z,93.75
2023-02-28T02:24:43.366Z,93.56
2023-02-28T02:25:43.257Z,94.41
2023-02-28T02:26:43.177Z,93.66
2023-02-28T02:27:43.076Z,93.75
2023-02-28T02:28:42.981Z,93.75
2023-02-28T02:29:42.894Z,93.47
2023-02-28T02:30:42.809Z,93.56
2023-02-28T02:31:42.789Z,93.56
2023-02-28T02:32:42.635Z,93.09
2023-02-28T02:33:42.544Z,93.47
2023-02-28T02:34:42.459Z,92.80
2023-02-28T02:35:42.406Z,93.75
2023-02-28T02:36:42.284Z,93.09
2023-02-28T02:37:42.186Z,93.28
2023-02-28T02:38:42.100Z,93.47
2023-02-28T02:39:42.020Z,93.47
2023-02-28T02:40:41.920Z,93.66
2023-02-28T02:41:41.832Z,93.56
2023-02-28T02:42:41.744Z,94.13
2023-02-28T02:43:41.658Z,93.47
2023-02-28T02:44:41.572Z,93.75
2023-02-28T02:45:41.485Z,93.75
2023-02-28T02:46:41.469Z,93.75
2023-02-28T02:47:41.309Z,93.75
2023-02-28T02:48:41.243Z,93.75
2023-02-28T02:49:41.144Z,93.66
2023-02-28T02:50:41.036Z,93.66
2023-02-28T02:51:40.950Z,93.94
2023-02-28T02:52:40.868Z,93.75
2023-02-28T02:53:40.776Z,93.75
2023-02-28T02:54:40.688Z,93.75
2023-02-28T02:55:40.598Z,93.94
2023-02-28T02:56:40.519Z,93.84
2023-02-28T02:57:40.423Z,93.94
2023-02-28T02:58:40.338Z,93.47
2023-02-28T02:59:40.242Z,94.41
2023-02-28T03:00:40.175Z,93.94
2023-02-28T03:01:40.068Z,94.22
2023-02-28T03:02:39.994Z,94.32
2023-02-28T03:03:39.915Z,93.66
2023-02-28T03:04:39.822Z,94.13
2023-02-28T03:05:39.716Z,94.60
2023-02-28T03:06:39.624Z,94.51
2023-02-28T03:07:39.537Z,94.51
2023-02-28T03:08:39.460Z,94.70
2023-02-28T03:09:39.361Z,94.79
2023-02-28T03:10:39.269Z,94.79
2023-02-28T03:11:39.199Z,94.60
2023-02-28T03:12:39.093Z,94.60
2023-02-28T03:13:39.021Z,94.79
2023-02-28T03:14:38.915Z,94.60
2023-02-28T03:15:38.829Z,94.79
2023-02-28T03:16:38.857Z,94.79
2023-02-28T03:17:38.654Z,94.60
2023-02-28T03:18:38.575Z,94.98
2023-02-28T03:19:38.479Z,95.17
2023-02-28T03:20:38.414Z,95.26
2023-02-28T03:21:38.302Z,94.98
2023-02-28T03:22:38.211Z,95.26
2023-02-28T03:23:38.124Z,95.17
2023-02-28T03:24:38.043Z,95.36
2023-02-28T03:25:37.967Z,95.54
2023-02-28T03:26:37.858Z,95.36
2023-02-28T03:27:37.775Z,95.36
2023-02-28T03:28:37.682Z,95.45
2023-02-28T03:29:37.596Z,95.54
2023-02-28T03:30:37.505Z,95.17
2023-02-28T03:31:37.473Z,95.17
2023-02-28T03:32:37.360Z,96.20
2023-02-28T03:33:37.245Z,95.17
2023-02-28T03:34:37.160Z,96.01
2023-02-28T03:35:37.085Z,95.73
2023-02-28T03:36:36.981Z,95.45
2023-02-28T03:37:36.903Z,95.54
2023-02-28T03:38:36.803Z,95.54
2023-02-28T03:39:36.719Z,95.54
2023-02-28T03:40:36.625Z,95.54
2023-02-28T03:41:36.541Z,95.83
2023-02-28T03:42:36.449Z,95.92
2023-02-28T03:43:36.357Z,95.36
2023-02-28T03:44:36.271Z,95.36
2023-02-28T03:45:36.310Z,96.01
2023-02-28T03:46:36.097Z,95.92
2023-02-28T03:47:36.035Z,95.26
2023-02-28T03:48:35.921Z,95.26
2023-02-28T03:49:35.828Z,95.36
2023-02-28T03:50:35.754Z,95.26
2023-02-28T03:51:35.653Z,95.17
2023-02-28T03:52:35.571Z,95.17
2023-02-28T03:53:35.482Z,95.26
2023-02-28T03:54:35.391Z,95.17
2023-02-28T03:55:35.298Z,95.45
2023-02-28T03:56:35.210Z,95.26
2023-02-28T03:57:35.120Z,95.26
2023-02-28T03:58:35.030Z,95.36
2023-02-28T03:59:34.953Z,95.64
2023-02-28T04:00:34.857Z,95.36
2023-02-28T04:01:34.791Z,95.36
2023-02-28T04:02:34.693Z,95.36
2023-02-28T04:03:34.588Z,95.54
2023-02-28T04:04:34.546Z,95.36
2023-02-28T04:05:34.423Z,95.45
2023-02-28T04:06:34.344Z,96.20
2023-02-28T04:07:34.269Z,95.54
2023-02-28T04:08:34.173Z,96.11
2023-02-28T04:09:34.074Z,95.92
2023-02-28T04:10:33.971Z,96.77
2023-02-28T04:11:33.887Z,96.86
2023-02-28T04:12:33.798Z,96.58
2023-02-28T04:13:33.705Z,96.11
2023-02-28T04:14:33.617Z,96.11
2023-02-28T04:15:33.558Z,95.92
2023-02-28T04:16:35.681Z,96.58
2023-02-28T04:17:33.351Z,96.20
2023-02-28T04:18:33.263Z,97.05
2023-02-28T04:19:33.173Z,97.05
2023-02-28T04:20:33.091Z,97.24
2023-02-28T04:21:33.582Z,95.83
2023-02-28T04:22:32.928Z,95.92
2023-02-28T04:23:32.856Z,96.96
2023-02-28T04:24:32.734Z,97.15
2023-02-28T04:25:32.643Z,95.92
2023-02-28T04:26:32.561Z,96.11
2023-02-28T04:27:32.841Z,95.73
2023-02-28T04:28:32.379Z,95.92
2023-02-28T04:29:32.289Z,96.39
2023-02-28T04:30:32.206Z,96.11
2023-02-28T04:31:32.472Z,96.20
2023-02-28T04:32:32.064Z,96.11
2023-02-28T04:33:31.936Z,96.39
2023-02-28T04:34:31.867Z,96.20
2023-02-28T04:35:31.807Z,95.73
2023-02-28T04:36:31.672Z,95.92
2023-02-28T04:37:31.589Z,96.20
2023-02-28T04:38:31.496Z,97.05
2023-02-28T04:39:31.418Z,97.05
2023-02-28T04:40:31.325Z,96.49
2023-02-28T04:41:32.783Z,96.86
2023-02-28T04:42:31.142Z,96.68
2023-02-28T04:43:31.050Z,96.96
2023-02-28T04:44:30.965Z,96.86
2023-02-28T04:45:30.971Z,96.86
2023-02-28T04:46:30.786Z,96.96
2023-02-28T04:47:30.695Z,96.77
2023-02-28T04:48:30.612Z,96.77
2023-02-28T04:49:30.522Z,96.86
2023-02-28T04:50:30.433Z,96.86
2023-02-28T04:51:30.710Z,96.86
2023-02-28T04:52:30.253Z,97.05
2023-02-28T04:53:30.164Z,97.05
2023-02-28T04:54:30.081Z,97.05
2023-02-28T04:55:29.988Z,96.77
2023-02-28T04:56:29.905Z,97.05
2023-02-28T04:57:29.811Z,96.01
2023-02-28T04:58:29.726Z,96.86
2023-02-28T04:59:29.642Z,96.96
2023-02-28T05:00:29.545Z,96.96
2023-02-28T05:01:29.709Z,96.86
2023-02-28T05:02:29.404Z,95.73
2023-02-28T05:03:29.277Z,97.24
2023-02-28T05:04:29.252Z,97.15
2023-02-28T05:05:29.100Z,95.83
2023-02-28T05:06:29.026Z,95.73
2023-02-28T05:07:28.922Z,95.83
2023-02-28T05:08:28.839Z,96.68
2023-02-28T05:09:28.748Z,95.92
2023-02-28T05:10:28.668Z,96.68
2023-02-28T05:11:28.855Z,96.68
2023-02-28T05:12:28.495Z,96.68
2023-02-28T05:13:28.393Z,96.20
2023-02-28T05:14:28.306Z,96.58
2023-02-28T05:15:28.213Z,96.20
2023-02-28T05:16:28.170Z,95.64
2023-02-28T05:17:28.041Z,96.20
2023-02-28T05:18:27.997Z,96.49
2023-02-28T05:19:27.860Z,95.54
2023-02-28T05:20:27.778Z,96.30
2023-02-28T05:21:28.205Z,96.77
2023-02-28T05:22:27.597Z,96.96
2023-02-28T05:23:27.506Z,96.77
2023-02-28T05:24:27.440Z,96.86
2023-02-28T05:25:27.330Z,96.20
2023-02-28T05:26:27.243Z,95.92
2023-02-28T05:27:27.152Z,96.86
2023-02-28T05:28:27.076Z,95.73
2023-02-28T05:29:26.979Z,95.73
2023-02-28T05:30:26.897Z,96.68
2023-02-28T05:31:27.019Z,96.11
2023-02-28T05:32:26.775Z,96.30
2023-02-28T05:33:26.624Z,96.11
2023-02-28T05:34:26.545Z,96.49
2023-02-28T05:35:26.479Z,96.68
2023-02-28T05:36:26.357Z,96.77
2023-02-28T05:37:26.270Z,96.68
2023-02-28T05:38:26.185Z,97.24
2023-02-28T05:39:26.089Z,97.43
2023-02-28T05:40:26.012Z,97.34
2023-02-28T05:41:25.913Z,96.96
2023-02-28T05:42:25.826Z,96.96
2023-02-28T05:43:25.738Z,96.96
2023-02-28T05:44:25.652Z,96.96
2023-02-28T05:45:25.561Z,97.05
2023-02-28T05:46:25.469Z,97.24
2023-02-28T05:47:25.383Z,95.54
2023-02-28T05:48:25.325Z,96.11
2023-02-28T05:49:25.206Z,96.20
2023-02-28T05:50:25.118Z,95.92
2023-02-28T05:51:25.037Z,96.77
2023-02-28T05:52:24.939Z,96.68
2023-02-28T05:53:24.865Z,97.05
2023-02-28T05:54:24.760Z,97.34
2023-02-28T05:55:24.675Z,97.10
2023-02-28T05:56:24.586Z,97.24
2023-02-28T05:57:25.021Z,97.34
2023-02-28T05:58:24.409Z,97.34
2023-02-28T05:59:24.320Z,97.34
2023-02-28T06:00:24.239Z,96.77
2023-02-28T06:01:24.159Z,96.39
2023-02-28T06:02:24.079Z,97.05
2023-02-28T06:03:24.111Z,97.43
2023-02-28T06:04:31.417Z,96.96
2023-02-28T06:05:23.790Z,97.24
2023-02-28T06:06:23.702Z,97.24
2023-02-28T06:07:23.622Z,97.15
2023-02-28T06:08:23.524Z,97.05
2023-02-28T06:09:23.440Z,97.24
2023-02-28T06:10:23.345Z,97.05
2023-02-28T06:11:23.262Z,97.43
2023-02-28T06:12:23.170Z,97.43
2023-02-28T06:13:23.085Z,96.86
2023-02-28T06:14:23.009Z,97.24
2023-02-28T06:15:22.906Z,96.96
2023-02-28T06:16:22.828Z,96.91
2023-02-28T06:17:22.737Z,97.24
2023-02-28T06:18:22.650Z,97.53
2023-02-28T06:19:22.551Z,97.62
2023-02-28T06:20:22.461Z,97.91
2023-02-28T06:21:22.379Z,98.10
2023-02-28T06:22:22.289Z,98.19
2023-02-28T06:23:22.199Z,98.00
2023-02-28T06:24:22.109Z,97.81
2023-02-28T06:25:22.027Z,98.19
2023-02-28T06:26:21.928Z,98.10
2023-02-28T06:27:21.847Z,97.91
2023-02-28T06:28:21.753Z,98.19
2023-02-28T06:29:21.668Z,98.10
2023-02-28T06:30:21.575Z,97.81
2023-02-28T06:31:21.526Z,97.62
2023-02-28T06:32:21.470Z,98.28
2023-02-28T06:33:21.317Z,98.00
2023-02-28T06:34:21.224Z,97.81
2023-02-28T06:35:21.134Z,97.81
2023-02-28T06:36:21.050Z,98.10
2023-02-28T06:37:20.957Z,98.38
2023-02-28T06:38:20.868Z,97.62
2023-02-28T06:39:20.785Z,97.62
2023-02-28T06:40:20.857Z,97.81
2023-02-28T06:41:20.621Z,97.81
2023-02-28T06:42:20.517Z,97.81
2023-02-28T06:43:20.427Z,97.91
2023-02-28T06:44:20.336Z,97.91
2023-02-28T06:45:20.261Z,98.28
2023-02-28T06:46:20.250Z,98.47
2023-02-28T06:47:20.067Z,98.57
2023-02-28T06:48:20.046Z,98.38
2023-02-28T06:49:19.901Z,98.66
2023-02-28T06:50:19.807Z,98.57
2023-02-28T06:51:19.716Z,98.85
2023-02-28T06:52:19.632Z,98.47
2023-02-28T06:53:19.541Z,98.28
2023-02-28T06:54:19.448Z,99.13
2023-02-28T06:55:19.361Z,98.94
2023-02-28T06:56:19.278Z,98.66
2023-02-28T06:57:19.191Z,99.13
2023-02-28T06:58:19.095Z,99.04
2023-02-28T06:59:19.008Z,99.60
2023-02-28T07:00:18.926Z,98.66
2023-02-28T07:01:18.931Z,99.04
2023-02-28T07:02:18.740Z,98.75
2023-02-28T07:03:18.656Z,99.04
2023-02-28T07:04:18.597Z,98.75
2023-02-28T07:05:18.474Z,98.57
2023-02-28T07:06:18.384Z,98.19
2023-02-28T07:07:18.301Z,97.81
2023-02-28T07:08:18.208Z,98.19
2023-02-28T07:09:18.126Z,98.10
2023-02-28T07:10:20.171Z,98.43
2023-02-28T07:11:17.940Z,97.48
2023-02-28T07:12:17.860Z,98.14
2023-02-28T07:13:17.771Z,97.77
2023-02-28T07:14:17.678Z,97.96
2023-02-28T07:15:17.588Z,97.20
2023-02-28T07:16:17.542Z,97.29
2023-02-28T07:17:17.411Z,97.58
2023-02-28T07:18:17.332Z,97.10
2023-02-28T07:19:17.237Z,97.67
2023-02-28T07:20:17.151Z,97.10
2023-02-28T07:21:17.073Z,97.01
2023-02-28T07:22:16.969Z,96.91
2023-02-28T07:23:16.886Z,96.54
2023-02-28T07:24:16.801Z,96.73
2023-02-28T07:25:16.703Z,96.54
2023-02-28T07:26:16.629Z,96.54
2023-02-28T07:27:16.529Z,95.45
2023-02-28T07:28:16.440Z,94.51
2023-02-28T07:29:16.352Z,93.94
2023-02-28T07:30:16.262Z,93.84
2023-02-28T07:31:16.212Z,93.84
2023-02-28T07:32:16.191Z,93.37
2023-02-28T07:33:16.054Z,93.47
2023-02-28T07:34:15.912Z,93.66
2023-02-28T07:35:15.823Z,93.75
2023-02-28T07:36:15.736Z,92.33
2023-02-28T07:37:15.649Z,92.33
2023-02-28T07:38:15.560Z,92.33
2023-02-28T07:39:15.485Z,91.43
2023-02-28T07:40:15.388Z,90.11
2023-02-28T07:41:15.304Z,90.01
2023-02-28T07:42:15.215Z,89.64
2023-02-28T07:43:15.127Z,89.64
2023-02-28T07:44:15.041Z,88.79
2023-02-28T07:45:14.954Z,89.36
2023-02-28T07:46:14.885Z,89.26
2023-02-28T07:47:14.779Z,89.17
2023-02-28T07:48:14.688Z,88.60
2023-02-28T07:49:14.608Z,87.74
2023-02-28T07:50:14.518Z,87.04
2023-02-28T07:51:14.437Z,86.37
2023-02-28T07:52:14.352Z,86.56
2023-02-28T07:53:14.263Z,86.28
2023-02-28T07:54:14.175Z,84.95
2023-02-28T07:55:14.083Z,84.20
2023-02-28T07:56:13.997Z,84.20
2023-02-28T07:57:13.909Z,84.39
2023-02-28T07:58:13.825Z,83.72
2023-02-28T07:59:13.736Z,83.91
2023-02-28T08:00:13.711Z,83.91
2023-02-28T08:01:13.562Z,84.10
2023-02-28T08:02:13.493Z,83.63
2023-02-28T08:03:13.391Z,84.01
2023-02-28T08:04:13.300Z,84.20
2023-02-28T08:05:13.248Z,83.34
2023-02-28T08:06:13.125Z,83.06
2023-02-28T08:07:13.047Z,82.34
2023-02-28T08:08:12.965Z,82.44
2023-02-28T08:09:12.871Z,82.06
2023-02-28T08:10:12.783Z,81.68
2023-02-28T08:11:12.692Z,81.30
2023-02-28T08:12:12.612Z,81.21
2023-02-28T08:13:12.523Z,80.55
2023-02-28T08:14:12.433Z,81.21
2023-02-28T08:15:12.368Z,81.68
2023-02-28T08:16:12.310Z,80.36
2023-02-28T08:17:12.177Z,79.22
2023-02-28T08:18:12.089Z,78.46
2023-02-28T08:19:12.003Z,78.85
2023-02-28T08:20:11.927Z,79.41
2023-02-28T08:21:11.850Z,79.79
2023-02-28T08:22:11.741Z,79.98
2023-02-28T08:23:11.661Z,78.85
2023-02-28T08:24:11.576Z,79.22
2023-02-28T08:25:11.481Z,80.02
2023-02-28T08:26:11.399Z,79.69
2023-02-28T08:27:11.313Z,78.69
2023-02-28T08:28:11.230Z,78.31
2023-02-28T08:29:11.144Z,77.94
2023-02-28T08:30:11.057Z,78.31
2023-02-28T08:31:11.007Z,77.65
2023-02-28T08:32:23.744Z,77.08
2023-02-28T08:33:10.851Z,76.80
2023-02-28T08:34:10.708Z,75.98
2023-02-28T08:35:10.625Z,75.51
2023-02-28T08:36:10.596Z,75.42
2023-02-28T08:37:10.458Z,75.42
2023-02-28T08:38:10.365Z,75.98
2023-02-28T08:39:10.292Z,75.13
2023-02-28T08:40:10.203Z,74.85
2023-02-28T08:41:10.134Z,74.71
2023-02-28T08:42:10.024Z,74.62
2023-02-28T08:43:09.936Z,75.51
2023-02-28T08:44:09.871Z,76.27
2023-02-28T08:45:09.765Z,77.31
2023-02-28T08:46:09.705Z,76.27
2023-02-28T08:47:09.597Z,75.89
2023-02-28T08:48:09.510Z,75.42
2023-02-28T08:49:09.425Z,75.13
2023-02-28T08:50:09.334Z,74.47
2023-02-28T08:51:09.257Z,74.09
2023-02-28T08:52:09.168Z,73.43
2023-02-28T08:53:09.078Z,73.33
2023-02-28T08:54:08.995Z,73.80
2023-02-28T08:55:08.915Z,73.90
2023-02-28T08:56:08.834Z,73.90
2023-02-28T08:57:08.741Z,73.77
2023-02-28T08:58:08.661Z,74.62
2023-02-28T08:59:08.574Z,74.52
2023-02-28T09:00:08.481Z,74.81
2023-02-28T09:01:08.461Z,75.00
2023-02-28T09:02:08.310Z,75.57
2023-02-28T09:03:08.234Z,75.76
2023-02-28T09:04:08.135Z,75.47
2023-02-28T09:05:08.054Z,74.43
2023-02-28T09:06:07.982Z,74.90
2023-02-28T09:07:07.886Z,74.71
2023-02-28T09:08:07.799Z,74.62
2023-02-28T09:09:07.719Z,75.00
2023-02-28T09:10:07.636Z,75.04
2023-02-28T09:11:07.544Z,74.66
2023-02-28T09:12:07.465Z,74.66
2023-02-28T09:13:07.373Z,74.28
2023-02-28T09:14:07.288Z,73.94
2023-02-28T09:15:07.211Z,72.67
2023-02-28T09:16:07.127Z,72.77
2023-02-28T09:17:07.053Z,72.61
2023-02-28T09:18:06.948Z,73.08
2023-02-28T09:19:06.865Z,72.48
2023-02-28T09:20:06.783Z,72.67
2023-02-28T09:21:06.703Z,72.77
2023-02-28T09:22:06.609Z,72.57
2023-02-28T09:23:06.535Z,73.14
2023-02-28T09:24:06.438Z,72.96
2023-02-28T09:25:06.357Z,72.29
2023-02-28T09:26:06.272Z,73.24
2023-02-28T09:27:06.789Z,73.52
2023-02-28T09:28:06.117Z,73.14
2023-02-28T09:29:06.019Z,73.52
2023-02-28T09:30:05.932Z,73.99
2023-02-28T09:31:06.036Z,74.98
2023-02-28T09:32:05.822Z,74.13
2023-02-28T09:33:05.682Z,73.75
2023-02-28T09:34:05.606Z,73.37
2023-02-28T09:35:05.517Z,72.64
2023-02-28T09:36:05.474Z,71.41
2023-02-28T09:37:05.413Z,71.32
2023-02-28T09:38:05.255Z,71.32
2023-02-28T09:39:05.182Z,71.03
2023-02-28T09:40:05.093Z,71.03
2023-02-28T09:41:05.008Z,70.09
2023-02-28T09:42:04.919Z,70.09
2023-02-28T09:43:04.844Z,69.42
2023-02-28T09:44:04.770Z,69.04
2023-02-28T09:45:04.667Z,69.23
2023-02-28T09:46:04.641Z,69.99
2023-02-28T09:47:04.511Z,70.37
2023-02-28T09:48:04.430Z,70.31
2023-02-28T09:49:04.361Z,69.36
2023-02-28T09:50:04.282Z,69.08
2023-02-28T09:51:04.163Z,68.38
2023-02-28T09:52:04.095Z,68.29
2023-02-28T09:53:03.996Z,68.57
2023-02-28T09:54:03.920Z,68.19
2023-02-28T09:55:03.835Z,68.85
2023-02-28T09:56:03.744Z,68.60
2023-02-28T09:57:03.664Z,67.65
2023-02-28T09:58:03.596Z,67.27
2023-02-28T09:59:03.502Z,67.08
2023-02-28T10:00:03.444Z,67.18
2023-02-28T10:01:03.345Z,68.32
2023-02-28T10:02:03.242Z,67.94
2023-02-28T10:03:03.156Z,67.46
2023-02-28T10:04:03.079Z,66.80
2023-02-28T10:05:03.077Z,67.46
2023-02-28T10:06:02.906Z,67.37
2023-02-28T10:07:02.825Z,66.80
2023-02-28T10:08:02.755Z,66.61
2023-02-28T10:09:02.657Z,67.08
2023-02-28T10:10:02.578Z,67.37
2023-02-28T10:11:02.490Z,67.97
2023-02-28T10:12:02.412Z,67.59
2023-02-28T10:13:02.323Z,67.02
2023-02-28T10:14:02.306Z,66.64
2023-02-28T10:15:02.157Z,65.79
2023-02-28T10:16:02.156Z,65.60
2023-02-28T10:17:01.997Z,66.08
2023-02-28T10:19:01.822Z,67.69
2023-02-28T10:20:01.748Z,67.97
2023-02-28T10:21:01.664Z,66.64
2023-02-28T10:22:01.577Z,64.78
2023-02-28T10:23:01.493Z,64.37
2023-02-28T10:24:01.410Z,64.27
2023-02-28T10:25:02.239Z,64.08
2023-02-28T10:26:01.248Z,64.46
2023-02-28T10:27:01.163Z,65.12
2023-02-28T10:28:01.079Z,64.84
2023-02-28T10:29:00.991Z,65.12
2023-02-28T10:30:00.913Z,65.50
2023-02-28T10:31:00.893Z,64.94
2023-02-28T10:32:00.779Z,64.65
2023-02-28T10:33:00.759Z,63.98
2023-02-28T10:34:00.579Z,64.78
2023-02-28T10:35:00.494Z,64.69
2023-02-28T10:36:00.462Z,64.78
2023-02-28T10:37:00.339Z,63.26
2023-02-28T10:38:00.251Z,62.66
2023-02-28T10:39:00.176Z,64.11
2023-02-28T10:40:00.110Z,64.11
2023-02-28T10:41:00.000Z,64.02
2023-02-28T10:41:59.937Z,63.73
2023-02-28T10:42:59.839Z,64.11
2023-02-28T10:43:59.759Z,63.92
2023-02-28T10:44:59.675Z,63.92
2023-02-28T10:45:59.679Z,62.31
2023-02-28T10:46:59.506Z,61.93
2023-02-28T10:47:59.432Z,61.55
2023-02-28T10:48:59.339Z,61.83
2023-02-28T10:49:59.259Z,62.50
2023-02-28T10:50:59.174Z,62.18
2023-02-28T10:51:59.102Z,62.94
2023-02-28T10:52:59.012Z,62.85
2023-02-28T10:54:01.838Z,62.18
2023-02-28T10:54:58.855Z,62.37
2023-02-28T10:55:58.766Z,63.04
2023-02-28T10:56:58.680Z,62.27
2023-02-28T10:57:58.600Z,61.90
2023-02-28T10:58:58.514Z,61.80
2023-02-28T10:59:58.432Z,61.61
2023-02-28T11:00:58.349Z,61.80
2023-02-28T11:01:58.307Z,62.05
2023-02-28T11:02:58.183Z,62.94
2023-02-28T11:03:58.103Z,62.82
2023-02-28T11:04:58.066Z,62.72
2023-02-28T11:05:57.942Z,62.91
2023-02-28T11:06:57.856Z,62.72
2023-02-28T11:07:57.773Z,62.91
2023-02-28T11:08:57.690Z,63.67
2023-02-28T11:09:57.604Z,63.67
2023-02-28T11:10:57.527Z,64.52
2023-02-28T11:11:57.456Z,65.47
2023-02-28T11:12:59.120Z,65.60
2023-02-28T11:13:57.275Z,66.55
2023-02-28T11:14:57.196Z,64.56
2023-02-28T11:15:57.141Z,63.98
2023-02-28T11:16:57.026Z,63.98
2023-02-28T11:17:56.944Z,64.46
2023-02-28T11:18:56.859Z,63.04
2023-02-28T11:19:56.783Z,63.70
2023-02-28T11:20:56.701Z,63.45
2023-02-28T11:21:56.664Z,63.35
2023-02-28T11:22:56.528Z,62.31
2023-02-28T11:23:56.452Z,62.12
2023-02-28T11:24:56.364Z,61.83
2023-02-28T11:25:56.282Z,61.36
2023-02-28T11:26:56.199Z,61.74
2023-02-28T11:27:56.124Z,62.02
2023-02-28T11:28:56.038Z,60.60
2023-02-28T11:29:55.955Z,61.45
2023-02-28T11:30:55.945Z,61.36
2023-02-28T11:31:55.859Z,60.50
2023-02-28T11:32:55.787Z,61.07
2023-02-28T11:33:55.628Z,63.45
2023-02-28T11:34:55.540Z,62.88
2023-02-28T11:35:55.494Z,62.40
2023-02-28T11:36:55.373Z,62.02
2023-02-28T11:37:55.297Z,61.83
2023-02-28T11:38:55.211Z,61.65
2023-02-28T11:39:55.141Z,61.45
2023-02-28T11:40:55.045Z,61.23
2023-02-28T11:41:54.977Z,61.14
2023-02-28T11:42:54.887Z,61.99
2023-02-28T11:43:54.801Z,61.52
2023-02-28T11:44:54.728Z,62.56
2023-02-28T11:45:54.640Z,64.11
2023-02-28T11:46:54.619Z,63.92
2023-02-28T11:47:54.473Z,62.88
2023-02-28T11:48:54.390Z,62.02
2023-02-28T11:49:54.308Z,61.83
2023-02-28T11:50:54.226Z,62.02
2023-02-28T11:51:54.149Z,61.87
2023-02-28T11:52:54.069Z,61.77
2023-02-28T11:53:53.985Z,62.15
2023-02-28T11:54:53.900Z,61.39
2023-02-28T11:55:53.822Z,60.79
2023-02-28T11:56:53.738Z,60.50
2023-02-28T11:57:53.655Z,60.22
2023-02-28T11:58:53.574Z,61.93
2023-02-28T11:59:53.495Z,62.50
2023-02-28T12:00:53.416Z,63.64
2023-02-28T12:01:53.331Z,63.07
2023-02-28T12:02:53.473Z,61.74
2023-02-28T12:03:53.172Z,60.69
2023-02-28T12:04:53.090Z,60.72
2023-02-28T12:05:53.011Z,59.68
2023-02-28T12:06:52.927Z,59.20
2023-02-28T12:07:52.872Z,60.16
2023-02-28T12:08:52.762Z,60.72
2023-02-28T12:09:52.681Z,61.96
2023-02-28T12:10:52.607Z,62.62
2023-02-28T12:11:52.519Z,61.87
2023-02-28T12:12:52.434Z,61.87
2023-02-28T12:13:52.353Z,61.20
2023-02-28T12:14:52.270Z,61.29
2023-02-28T12:15:52.191Z,60.06
2023-02-28T12:16:52.114Z,59.58
2023-02-28T12:17:52.031Z,58.25
2023-02-28T12:18:51.963Z,58.25
2023-02-28T12:19:51.864Z,58.63
2023-02-28T12:20:51.790Z,59.80
2023-02-28T12:21:51.710Z,60.85
2023-02-28T12:22:51.621Z,59.90
2023-02-28T12:23:51.540Z,59.90
2023-02-28T12:24:51.465Z,58.85
2023-02-28T12:25:51.374Z,59.23
2023-02-28T12:26:51.293Z,60.66
2023-02-28T12:27:51.212Z,60.75
2023-02-28T12:28:51.127Z,60.57
2023-02-28T12:29:51.073Z,59.61
2023-02-28T12:30:50.964Z,59.52
2023-02-28T12:31:51.017Z,58.76
2023-02-28T12:32:50.849Z,59.05
2023-02-28T12:33:50.727Z,58.85
2023-02-28T12:34:50.636Z,58.57
2023-02-28T12:35:50.572Z,59.52
2023-02-28T12:36:50.473Z,60.57
2023-02-28T12:37:50.414Z,60.57
2023-02-28T12:38:50.308Z,60.66
2023-02-28T12:39:51.082Z,59.71
2023-02-28T12:40:50.153Z,59.14
2023-02-28T12:41:50.068Z,59.05
2023-02-28T12:42:49.983Z,58.09
2023-02-28T12:43:49.907Z,58.00
2023-02-28T12:44:49.822Z,57.71
2023-02-28T12:45:50.052Z,56.95
2023-02-28T12:46:49.687Z,57.62
2023-02-28T12:47:49.580Z,58.00
2023-02-28T12:48:49.500Z,57.78
2023-02-28T12:49:49.414Z,58.54
2023-02-28T12:50:49.340Z,58.83
2023-02-28T12:51:49.256Z,59.36
2023-02-28T12:52:49.169Z,59.46